sensor_id;sensor_type;location;lat;lon;timestamp;pressure;altitude;pressure_sealevel;temperature;humidity
42633;BME280;28261;53.304;-6.284;2023-06-10T00:01:38;100875.81;;;13.81;97.55
42633;BME280;28261;53.304;-6.284;2023-06-10T00:03:42;100873.28;;;13.80;97.98
42633;BME280;28261;53.304;-6.284;2023-06-10T00:05:47;100868.06;;;13.78;97.98
42633;BME280;28261;53.304;-6.284;2023-06-10T00:07:51;100869.03;;;13.77;97.76
42633;BME280;28261;53.304;-6.284;2023-06-10T00:10:00;100863.94;;;13.74;97.59
42633;BME280;28261;53.304;-6.284;2023-06-10T00:12:08;100869.41;;;13.73;98.36
42633;BME280;28261;53.304;-6.284;2023-06-10T00:14:16;100873.16;;;13.70;97.81
42633;BME280;28261;53.304;-6.284;2023-06-10T00:16:19;100868.78;;;13.69;98.30
42633;BME280;28261;53.304;-6.284;2023-06-10T00:18:23;100876.78;;;13.69;97.61
42633;BME280;28261;53.304;-6.284;2023-06-10T00:20:28;100871.56;;;13.67;98.17
42633;BME280;28261;53.304;-6.284;2023-06-10T00:22:32;100872.41;;;13.68;97.62
42633;BME280;28261;53.304;-6.284;2023-06-10T00:24:36;100880.41;;;13.68;97.59
42633;BME280;28261;53.304;-6.284;2023-06-10T00:26:42;100876.16;;;13.65;98.65
42633;BME280;28261;53.304;-6.284;2023-06-10T00:28:45;100876.41;;;13.62;98.29
42633;BME280;28261;53.304;-6.284;2023-06-10T00:30:50;100875.56;;;13.62;98.27
42633;BME280;28261;53.304;-6.284;2023-06-10T00:32:54;100869.63;;;13.58;97.91
42633;BME280;28261;53.304;-6.284;2023-06-10T00:34:58;100865.38;;;13.56;99.23
42633;BME280;28261;53.304;-6.284;2023-06-10T00:37:06;100869.03;;;13.54;98.68
42633;BME280;28261;53.304;-6.284;2023-06-10T00:39:10;100867.31;;;13.53;98.22
42633;BME280;28261;53.304;-6.284;2023-06-10T00:41:14;100864.66;;;13.53;97.82
42633;BME280;28261;53.304;-6.284;2023-06-10T00:43:19;100863.91;;;13.51;98.11
42633;BME280;28261;53.304;-6.284;2023-06-10T00:45:23;100862.22;;;13.50;98.54
42633;BME280;28261;53.304;-6.284;2023-06-10T00:47:27;100861.25;;;13.51;98.01
42633;BME280;28261;53.304;-6.284;2023-06-10T00:49:34;100858.59;;;13.51;98.25
42633;BME280;28261;53.304;-6.284;2023-06-10T00:51:38;100858.47;;;13.53;98.33
42633;BME280;28261;53.304;-6.284;2023-06-10T00:53:42;100862.13;;;13.52;98.24
42633;BME280;28261;53.304;-6.284;2023-06-10T00:55:45;100866.56;;;13.51;97.98
42633;BME280;28261;53.304;-6.284;2023-06-10T00:57:49;100856.03;;;13.50;98.47
42633;BME280;28261;53.304;-6.284;2023-06-10T00:59:56;100856.16;;;13.48;98.51
42633;BME280;28261;53.304;-6.284;2023-06-10T01:02:01;100861.50;;;13.48;97.96
42633;BME280;28261;53.304;-6.284;2023-06-10T01:04:05;100857.13;;;13.47;98.14
42633;BME280;28261;53.304;-6.284;2023-06-10T01:06:20;100852.75;;;13.46;98.63
42633;BME280;28261;53.304;-6.284;2023-06-10T01:08:32;100847.44;;;13.46;98.78
42633;BME280;28261;53.304;-6.284;2023-06-10T01:10:43;100850.34;;;13.43;98.64
42633;BME280;28261;53.304;-6.284;2023-06-10T01:12:54;100846.97;;;13.41;98.27
42633;BME280;28261;53.304;-6.284;2023-06-10T01:15:00;100850.72;;;13.39;98.32
42633;BME280;28261;53.304;-6.284;2023-06-10T01:17:06;100854.47;;;13.36;98.76
42633;BME280;28261;53.304;-6.284;2023-06-10T01:19:12;100856.34;;;13.34;98.81
42633;BME280;28261;53.304;-6.284;2023-06-10T01:21:19;100854.66;;;13.33;99.07
42633;BME280;28261;53.304;-6.284;2023-06-10T01:23:27;100851.25;;;13.31;99.00
42633;BME280;28261;53.304;-6.284;2023-06-10T01:25:31;100843.16;;;13.32;99.20
42633;BME280;28261;53.304;-6.284;2023-06-10T01:27:39;100844.22;;;13.30;99.34
42633;BME280;28261;53.304;-6.284;2023-06-10T01:29:46;100831.53;;;13.22;98.74
42633;BME280;28261;53.304;-6.284;2023-06-10T01:32:01;100831.13;;;13.15;99.53
42633;BME280;28261;53.304;-6.284;2023-06-10T01:34:10;100833.53;;;13.07;100.00
42633;BME280;28261;53.304;-6.284;2023-06-10T01:36:15;100830.38;;;13.02;100.00
42633;BME280;28261;53.304;-6.284;2023-06-10T01:38:21;100828.66;;;13.01;100.00
42633;BME280;28261;53.304;-6.284;2023-06-10T01:40:25;100835.47;;;13.05;100.00
42633;BME280;28261;53.304;-6.284;2023-06-10T01:42:30;100829.81;;;13.10;100.00
42633;BME280;28261;53.304;-6.284;2023-06-10T01:44:34;100824.22;;;13.13;100.00
42633;BME280;28261;53.304;-6.284;2023-06-10T01:46:37;100825.81;;;13.15;100.00
42633;BME280;28261;53.304;-6.284;2023-06-10T01:48:42;100825.69;;;13.17;100.00
42633;BME280;28261;53.304;-6.284;2023-06-10T01:50:45;100816.75;;;13.18;100.00
42633;BME280;28261;53.304;-6.284;2023-06-10T01:52:49;100814.94;;;13.18;100.00
42633;BME280;28261;53.304;-6.284;2023-06-10T01:54:53;100819.16;;;13.21;100.00
42633;BME280;28261;53.304;-6.284;2023-06-10T01:56:57;100815.44;;;13.24;100.00
42633;BME280;28261;53.304;-6.284;2023-06-10T01:59:00;100822.34;;;13.26;100.00
42633;BME280;28261;53.304;-6.284;2023-06-10T02:01:04;100814.94;;;13.30;100.00
42633;BME280;28261;53.304;-6.284;2023-06-10T02:03:07;100818.22;;;13.33;100.00
42633;BME280;28261;53.304;-6.284;2023-06-10T02:05:11;100824.22;;;13.37;100.00
42633;BME280;28261;53.304;-6.284;2023-06-10T02:07:16;100817.81;;;13.40;100.00
42633;BME280;28261;53.304;-6.284;2023-06-10T02:09:20;100823.72;;;13.43;100.00
42633;BME280;28261;53.304;-6.284;2023-06-10T02:11:26;100824.47;;;13.45;100.00
42633;BME280;28261;53.304;-6.284;2023-06-10T02:13:29;100820.81;;;13.46;100.00
42633;BME280;28261;53.304;-6.284;2023-06-10T02:15:33;100816.22;;;13.48;100.00
42633;BME280;28261;53.304;-6.284;2023-06-10T02:17:37;100816.94;;;13.50;100.00
42633;BME280;28261;53.304;-6.284;2023-06-10T02:19:41;100814.19;;;13.52;100.00
42633;BME280;28261;53.304;-6.284;2023-06-10T02:21:45;100808.72;;;13.53;100.00
42633;BME280;28261;53.304;-6.284;2023-06-10T02:23:48;100806.78;;;13.56;100.00
42633;BME280;28261;53.304;-6.284;2023-06-10T02:25:52;100803.28;;;13.55;100.00
42633;BME280;28261;53.304;-6.284;2023-06-10T02:27:56;100807.97;;;13.51;100.00
42633;BME280;28261;53.304;-6.284;2023-06-10T02:30:00;100802.16;;;13.46;100.00
42633;BME280;28261;53.304;-6.284;2023-06-10T02:32:07;100804.94;;;13.45;100.00
42633;BME280;28261;53.304;-6.284;2023-06-10T02:34:12;100803.88;;;13.47;100.00
42633;BME280;28261;53.304;-6.284;2023-06-10T02:36:17;100795.88;;;13.47;100.00
42633;BME280;28261;53.304;-6.284;2023-06-10T02:38:23;100799.41;;;13.48;100.00
42633;BME280;28261;53.304;-6.284;2023-06-10T02:40:28;100802.66;;;13.51;100.00
42633;BME280;28261;53.304;-6.284;2023-06-10T02:42:31;100817.44;;;13.56;100.00
42633;BME280;28261;53.304;-6.284;2023-06-10T02:44:37;100802.91;;;13.60;100.00
42633;BME280;28261;53.304;-6.284;2023-06-10T02:46:45;100810.44;;;13.66;100.00
42633;BME280;28261;53.304;-6.284;2023-06-10T02:48:49;100810.19;;;13.69;100.00
42633;BME280;28261;53.304;-6.284;2023-06-10T02:50:56;100806.44;;;13.71;100.00
42633;BME280;28261;53.304;-6.284;2023-06-10T02:53:09;100814.28;;;13.73;100.00
42633;BME280;28261;53.304;-6.284;2023-06-10T02:55:16;100811.50;;;13.75;100.00
42633;BME280;28261;53.304;-6.284;2023-06-10T02:57:25;100819.25;;;13.78;100.00
42633;BME280;28261;53.304;-6.284;2023-06-10T02:59:28;100816.50;;;13.79;100.00
42633;BME280;28261;53.304;-6.284;2023-06-10T03:01:34;100810.16;;;13.80;100.00
42633;BME280;28261;53.304;-6.284;2023-06-10T03:03:42;100815.28;;;13.83;100.00
42633;BME280;28261;53.304;-6.284;2023-06-10T03:05:49;100812.69;;;13.82;100.00
42633;BME280;28261;53.304;-6.284;2023-06-10T03:07:55;100808.25;;;13.82;100.00
42633;BME280;28261;53.304;-6.284;2023-06-10T03:09:58;100812.47;;;13.85;100.00
42633;BME280;28261;53.304;-6.284;2023-06-10T03:12:03;100803.41;;;13.87;100.00
42633;BME280;28261;53.304;-6.284;2023-06-10T03:14:13;100808.72;;;13.87;100.00
42633;BME280;28261;53.304;-6.284;2023-06-10T03:16:17;100807.72;;;13.88;100.00
42633;BME280;28261;53.304;-6.284;2023-06-10T03:18:26;100810.66;;;13.85;100.00
42633;BME280;28261;53.304;-6.284;2023-06-10T03:20:30;100808.00;;;13.85;100.00
42633;BME280;28261;53.304;-6.284;2023-06-10T03:22:33;100806.28;;;13.84;100.00
42633;BME280;28261;53.304;-6.284;2023-06-10T03:24:42;100810.16;;;13.80;100.00
42633;BME280;28261;53.304;-6.284;2023-06-10T03:26:49;100812.97;;;13.79;100.00
42633;BME280;28261;53.304;-6.284;2023-06-10T03:28:52;100808.59;;;13.78;100.00
42633;BME280;28261;53.304;-6.284;2023-06-10T03:30:58;100806.78;;;13.78;100.00
42633;BME280;28261;53.304;-6.284;2023-06-10T03:33:02;100800.59;;;13.78;100.00
42633;BME280;28261;53.304;-6.284;2023-06-10T03:35:08;100804.97;;;13.79;100.00
42633;BME280;28261;53.304;-6.284;2023-06-10T03:37:12;100804.84;;;13.80;100.00
42633;BME280;28261;53.304;-6.284;2023-06-10T03:39:18;100811.88;;;13.81;100.00
42633;BME280;28261;53.304;-6.284;2023-06-10T03:41:22;100803.88;;;13.81;100.00
42633;BME280;28261;53.304;-6.284;2023-06-10T03:43:26;100805.44;;;13.84;100.00
42633;BME280;28261;53.304;-6.284;2023-06-10T03:45:29;100813.31;;;13.85;100.00
42633;BME280;28261;53.304;-6.284;2023-06-10T03:47:34;100817.44;;;13.90;100.00
42633;BME280;28261;53.304;-6.284;2023-06-10T03:49:42;100813.81;;;13.91;100.00
42633;BME280;28261;53.304;-6.284;2023-06-10T03:51:47;100818.41;;;13.88;100.00
42633;BME280;28261;53.304;-6.284;2023-06-10T03:53:52;100817.31;;;13.91;100.00
42633;BME280;28261;53.304;-6.284;2023-06-10T03:55:56;100823.50;;;13.92;100.00
42633;BME280;28261;53.304;-6.284;2023-06-10T03:58:01;100814.78;;;13.90;100.00
42633;BME280;28261;53.304;-6.284;2023-06-10T04:00:06;100808.72;;;13.87;100.00
42633;BME280;28261;53.304;-6.284;2023-06-10T04:02:16;100811.63;;;13.84;100.00
42633;BME280;28261;53.304;-6.284;2023-06-10T04:04:20;100805.56;;;13.82;100.00
42633;BME280;28261;53.304;-6.284;2023-06-10T04:06:24;100796.84;;;13.80;100.00
42633;BME280;28261;53.304;-6.284;2023-06-10T04:08:31;100797.09;;;13.77;100.00
42633;BME280;28261;53.304;-6.284;2023-06-10T04:10:34;100792.03;;;13.74;100.00
42633;BME280;28261;53.304;-6.284;2023-06-10T04:12:38;100801.22;;;13.70;100.00
42633;BME280;28261;53.304;-6.284;2023-06-10T04:14:41;100791.53;;;13.69;100.00
42633;BME280;28261;53.304;-6.284;2023-06-10T04:16:46;100794.19;;;13.69;100.00
42633;BME280;28261;53.304;-6.284;2023-06-10T04:18:50;100799.53;;;13.69;100.00
42633;BME280;28261;53.304;-6.284;2023-06-10T04:20:54;100794.94;;;13.71;100.00
42633;BME280;28261;53.304;-6.284;2023-06-10T04:22:57;100791.28;;;13.72;100.00
42633;BME280;28261;53.304;-6.284;2023-06-10T04:25:03;100784.72;;;13.76;100.00
42633;BME280;28261;53.304;-6.284;2023-06-10T04:27:06;100779.19;;;13.79;100.00
42633;BME280;28261;53.304;-6.284;2023-06-10T04:29:10;100787.88;;;13.81;100.00
42633;BME280;28261;53.304;-6.284;2023-06-10T04:31:15;100786.81;;;13.84;100.00
42633;BME280;28261;53.304;-6.284;2023-06-10T04:33:18;100789.22;;;13.87;100.00
42633;BME280;28261;53.304;-6.284;2023-06-10T04:35:22;100801.94;;;13.95;100.00
42633;BME280;28261;53.304;-6.284;2023-06-10T04:37:29;100798.88;;;13.99;100.00
42633;BME280;28261;53.304;-6.284;2023-06-10T04:39:34;100788.56;;;14.06;100.00
42633;BME280;28261;53.304;-6.284;2023-06-10T04:41:43;100786.41;;;14.11;100.00
42633;BME280;28261;53.304;-6.284;2023-06-10T04:43:47;100795.00;;;14.15;100.00
42633;BME280;28261;53.304;-6.284;2023-06-10T04:45:51;100787.59;;;14.18;100.00
42633;BME280;28261;53.304;-6.284;2023-06-10T04:47:54;100787.34;;;14.21;100.00
42633;BME280;28261;53.304;-6.284;2023-06-10T04:50:01;100793.66;;;14.20;100.00
42633;BME280;28261;53.304;-6.284;2023-06-10T04:52:05;100786.75;;;14.18;100.00
42633;BME280;28261;53.304;-6.284;2023-06-10T04:54:12;100782.50;;;14.15;100.00
42633;BME280;28261;53.304;-6.284;2023-06-10T04:56:16;100781.78;;;14.13;100.00
42633;BME280;28261;53.304;-6.284;2023-06-10T04:58:21;100787.00;;;14.15;100.00
42633;BME280;28261;53.304;-6.284;2023-06-10T05:00:24;100795.97;;;14.14;100.00
42633;BME280;28261;53.304;-6.284;2023-06-10T05:02:27;100787.09;;;14.13;100.00
42633;BME280;28261;53.304;-6.284;2023-06-10T05:04:31;100794.00;;;14.16;100.00
42633;BME280;28261;53.304;-6.284;2023-06-10T05:06:34;100794.75;;;14.18;100.00
42633;BME280;28261;53.304;-6.284;2023-06-10T05:08:38;100789.16;;;14.21;100.00
42633;BME280;28261;53.304;-6.284;2023-06-10T05:10:41;100793.88;;;14.29;100.00
42633;BME280;28261;53.304;-6.284;2023-06-10T05:12:45;100791.03;;;14.42;100.00
42633;BME280;28261;53.304;-6.284;2023-06-10T05:14:50;100796.66;;;14.60;100.00
42633;BME280;28261;53.304;-6.284;2023-06-10T05:16:53;100789.38;;;14.73;100.00
42633;BME280;28261;53.304;-6.284;2023-06-10T05:18:56;100788.72;;;14.81;100.00
42633;BME280;28261;53.304;-6.284;2023-06-10T05:21:00;100787.50;;;14.85;100.00
42633;BME280;28261;53.304;-6.284;2023-06-10T05:23:04;100785.16;;;14.92;100.00
42633;BME280;28261;53.304;-6.284;2023-06-10T05:25:08;100781.97;;;14.98;100.00
42633;BME280;28261;53.304;-6.284;2023-06-10T05:27:12;100793.69;;;15.06;100.00
42633;BME280;28261;53.304;-6.284;2023-06-10T05:29:15;100799.34;;;15.13;100.00
42633;BME280;28261;53.304;-6.284;2023-06-10T05:31:20;100799.59;;;15.10;100.00
42633;BME280;28261;53.304;-6.284;2023-06-10T05:33:23;100789.72;;;15.01;100.00
42633;BME280;28261;53.304;-6.284;2023-06-10T05:35:27;100786.59;;;14.96;100.00
42633;BME280;28261;53.304;-6.284;2023-06-10T05:37:30;100792.19;;;14.93;100.00
42633;BME280;28261;53.304;-6.284;2023-06-10T05:39:35;100786.25;;;14.89;100.00
42633;BME280;28261;53.304;-6.284;2023-06-10T05:41:40;100791.75;;;14.76;100.00
42633;BME280;28261;53.304;-6.284;2023-06-10T05:43:44;100786.34;;;14.66;100.00
42633;BME280;28261;53.304;-6.284;2023-06-10T05:45:47;100790.63;;;14.58;100.00
42633;BME280;28261;53.304;-6.284;2023-06-10T05:47:53;100799.25;;;14.50;100.00
42633;BME280;28261;53.304;-6.284;2023-06-10T05:49:57;100803.16;;;14.46;100.00
42633;BME280;28261;53.304;-6.284;2023-06-10T05:52:02;100797.22;;;14.42;100.00
42633;BME280;28261;53.304;-6.284;2023-06-10T05:54:06;100799.03;;;14.42;100.00
42633;BME280;28261;53.304;-6.284;2023-06-10T05:56:09;100794.56;;;14.42;100.00
42633;BME280;28261;53.304;-6.284;2023-06-10T05:58:13;100802.44;;;14.44;100.00
42633;BME280;28261;53.304;-6.284;2023-06-10T06:00:18;100802.56;;;14.42;100.00
42633;BME280;28261;53.304;-6.284;2023-06-10T06:02:21;100810.19;;;14.47;100.00
42633;BME280;28261;53.304;-6.284;2023-06-10T06:04:27;100812.94;;;14.56;100.00
42633;BME280;28261;53.304;-6.284;2023-06-10T06:06:30;100809.91;;;14.61;100.00
42633;BME280;28261;53.304;-6.284;2023-06-10T06:08:33;100812.34;;;14.64;100.00
42633;BME280;28261;53.304;-6.284;2023-06-10T06:10:37;100812.69;;;14.71;100.00
42633;BME280;28261;53.304;-6.284;2023-06-10T06:12:41;100803.66;;;14.83;100.00
42633;BME280;28261;53.304;-6.284;2023-06-10T06:14:44;100809.50;;;14.98;100.00
42633;BME280;28261;53.304;-6.284;2023-06-10T06:16:48;100808.97;;;15.04;100.00
42633;BME280;28261;53.304;-6.284;2023-06-10T06:18:51;100807.81;;;15.18;100.00
42633;BME280;28261;53.304;-6.284;2023-06-10T06:20:56;100814.91;;;15.29;100.00
42633;BME280;28261;53.304;-6.284;2023-06-10T06:22:59;100806.75;;;15.31;100.00
42633;BME280;28261;53.304;-6.284;2023-06-10T06:25:04;100803.97;;;15.32;100.00
42633;BME280;28261;53.304;-6.284;2023-06-10T06:27:08;100814.47;;;15.24;100.00
42633;BME280;28261;53.304;-6.284;2023-06-10T06:29:12;100817.13;;;15.24;100.00
42633;BME280;28261;53.304;-6.284;2023-06-10T06:31:15;100810.28;;;15.10;100.00
42633;BME280;28261;53.304;-6.284;2023-06-10T06:33:19;100812.75;;;15.02;100.00
42633;BME280;28261;53.304;-6.284;2023-06-10T06:35:23;100812.75;;;15.02;100.00
42633;BME280;28261;53.304;-6.284;2023-06-10T06:37:28;100817.44;;;15.10;100.00
42633;BME280;28261;53.304;-6.284;2023-06-10T06:39:48;100808.06;;;15.15;100.00
42633;BME280;28261;53.304;-6.284;2023-06-10T06:41:53;100811.91;;;15.22;100.00
42633;BME280;28261;53.304;-6.284;2023-06-10T06:44:14;100815.31;;;15.25;100.00
42633;BME280;28261;53.304;-6.284;2023-06-10T06:46:18;100821.09;;;15.30;100.00
42633;BME280;28261;53.304;-6.284;2023-06-10T06:48:23;100810.75;;;15.36;100.00
42633;BME280;28261;53.304;-6.284;2023-06-10T06:50:27;100819.25;;;15.51;100.00
42633;BME280;28261;53.304;-6.284;2023-06-10T06:52:32;100822.66;;;15.84;100.00
42633;BME280;28261;53.304;-6.284;2023-06-10T06:54:36;100820.41;;;16.40;100.00
42633;BME280;28261;53.304;-6.284;2023-06-10T06:56:40;100806.34;;;16.87;100.00
42633;BME280;28261;53.304;-6.284;2023-06-10T06:58:47;100818.84;;;17.35;97.78
42633;BME280;28261;53.304;-6.284;2023-06-10T07:00:51;100812.59;;;17.54;95.07
42633;BME280;28261;53.304;-6.284;2023-06-10T07:02:59;100818.66;;;17.56;93.44
42633;BME280;28261;53.304;-6.284;2023-06-10T07:05:04;100814.50;;;17.72;93.49
42633;BME280;28261;53.304;-6.284;2023-06-10T07:07:10;100819.09;;;17.89;91.39
42633;BME280;28261;53.304;-6.284;2023-06-10T07:09:17;100821.75;;;17.99;91.44
42633;BME280;28261;53.304;-6.284;2023-06-10T07:11:21;100822.19;;;18.22;89.53
42633;BME280;28261;53.304;-6.284;2023-06-10T07:13:25;100823.66;;;18.53;88.44
42633;BME280;28261;53.304;-6.284;2023-06-10T07:15:30;100819.59;;;18.67;86.31
42633;BME280;28261;53.304;-6.284;2023-06-10T07:17:35;100827.13;;;18.81;85.68
42633;BME280;28261;53.304;-6.284;2023-06-10T07:19:39;100820.31;;;18.69;85.68
42633;BME280;28261;53.304;-6.284;2023-06-10T07:21:43;100826.97;;;18.47;85.78
42633;BME280;28261;53.304;-6.284;2023-06-10T07:23:47;100826.34;;;18.07;87.12
42633;BME280;28261;53.304;-6.284;2023-06-10T07:25:53;100828.56;;;17.84;88.34
42633;BME280;28261;53.304;-6.284;2023-06-10T07:27:57;100826.63;;;17.76;88.59
42633;BME280;28261;53.304;-6.284;2023-06-10T07:30:00;100831.91;;;17.58;88.70
42633;BME280;28261;53.304;-6.284;2023-06-10T07:32:05;100834.66;;;17.29;88.83
42633;BME280;28261;53.304;-6.284;2023-06-10T07:34:09;100832.28;;;17.16;89.84
42633;BME280;28261;53.304;-6.284;2023-06-10T07:36:12;100830.91;;;17.02;90.51
42633;BME280;28261;53.304;-6.284;2023-06-10T07:38:17;100838.47;;;16.77;91.35
42633;BME280;28261;53.304;-6.284;2023-06-10T07:40:21;100835.09;;;16.65;92.43
42633;BME280;28261;53.304;-6.284;2023-06-10T07:42:27;100826.34;;;16.63;92.27
42633;BME280;28261;53.304;-6.284;2023-06-10T07:44:31;100831.84;;;16.62;92.55
42633;BME280;28261;53.304;-6.284;2023-06-10T07:46:34;100836.06;;;16.54;92.52
42633;BME280;28261;53.304;-6.284;2023-06-10T07:48:38;100830.00;;;16.52;92.68
42633;BME280;28261;53.304;-6.284;2023-06-10T07:50:42;100837.91;;;16.54;91.99
42633;BME280;28261;53.304;-6.284;2023-06-10T07:52:46;100826.19;;;16.45;93.00
42633;BME280;28261;53.304;-6.284;2023-06-10T07:54:49;100840.53;;;16.44;92.95
42633;BME280;28261;53.304;-6.284;2023-06-10T07:56:53;100840.00;;;16.60;93.12
42633;BME280;28261;53.304;-6.284;2023-06-10T07:58:59;100833.69;;;16.81;91.65
42633;BME280;28261;53.304;-6.284;2023-06-10T08:01:03;100839.06;;;16.90;91.37
42633;BME280;28261;53.304;-6.284;2023-06-10T08:03:07;100838.78;;;16.94;91.11
42633;BME280;28261;53.304;-6.284;2023-06-10T08:05:11;100840.16;;;16.88;90.83
42633;BME280;28261;53.304;-6.284;2023-06-10T08:07:15;100841.84;;;16.79;90.91
42633;BME280;28261;53.304;-6.284;2023-06-10T08:09:20;100838.47;;;16.77;91.12
42633;BME280;28261;53.304;-6.284;2023-06-10T08:11:25;100841.03;;;16.79;91.45
42633;BME280;28261;53.304;-6.284;2023-06-10T08:13:30;100837.19;;;16.81;90.99
42633;BME280;28261;53.304;-6.284;2023-06-10T08:15:35;100835.38;;;16.62;91.62
42633;BME280;28261;53.304;-6.284;2023-06-10T08:17:40;100842.69;;;16.50;92.58
42633;BME280;28261;53.304;-6.284;2023-06-10T08:19:44;100835.63;;;16.49;93.58
42633;BME280;28261;53.304;-6.284;2023-06-10T08:21:48;100831.41;;;16.56;93.59
42633;BME280;28261;53.304;-6.284;2023-06-10T08:23:53;100840.16;;;16.58;93.24
42633;BME280;28261;53.304;-6.284;2023-06-10T08:25:57;100844.38;;;16.51;92.67
42633;BME280;28261;53.304;-6.284;2023-06-10T08:28:01;100852.50;;;16.40;92.83
42633;BME280;28261;53.304;-6.284;2023-06-10T08:30:07;100847.16;;;16.30;93.32
42633;BME280;28261;53.304;-6.284;2023-06-10T08:32:14;100845.56;;;16.18;93.65
42633;BME280;28261;53.304;-6.284;2023-06-10T08:34:18;100844.69;;;16.07;94.34
42633;BME280;28261;53.304;-6.284;2023-06-10T08:36:21;100848.22;;;16.08;94.79
42633;BME280;28261;53.304;-6.284;2023-06-10T08:38:25;100847.06;;;16.01;95.54
42633;BME280;28261;53.304;-6.284;2023-06-10T08:40:29;100842.41;;;16.03;95.94
42633;BME280;28261;53.304;-6.284;2023-06-10T08:42:35;100851.84;;;16.07;95.63
42633;BME280;28261;53.304;-6.284;2023-06-10T08:44:46;100851.13;;;15.95;95.91
42633;BME280;28261;53.304;-6.284;2023-06-10T08:46:51;100842.81;;;15.88;96.24
42633;BME280;28261;53.304;-6.284;2023-06-10T08:48:56;100853.75;;;15.85;96.54
42633;BME280;28261;53.304;-6.284;2023-06-10T08:51:04;100852.22;;;15.83;96.63
42633;BME280;28261;53.304;-6.284;2023-06-10T08:53:13;100850.81;;;15.88;96.55
42633;BME280;28261;53.304;-6.284;2023-06-10T08:55:25;100849.00;;;15.89;96.80
42633;BME280;28261;53.304;-6.284;2023-06-10T08:57:33;100851.53;;;15.90;97.06
42633;BME280;28261;53.304;-6.284;2023-06-10T08:59:38;100848.00;;;15.90;97.13
42633;BME280;28261;53.304;-6.284;2023-06-10T09:01:44;100851.22;;;15.84;97.47
42633;BME280;28261;53.304;-6.284;2023-06-10T09:03:48;100852.84;;;15.75;97.55
42633;BME280;28261;53.304;-6.284;2023-06-10T09:05:55;100846.97;;;15.81;97.38
42633;BME280;28261;53.304;-6.284;2023-06-10T09:08:00;100853.06;;;15.83;96.87
42633;BME280;28261;53.304;-6.284;2023-06-10T09:10:05;100843.78;;;15.87;96.95
42633;BME280;28261;53.304;-6.284;2023-06-10T09:12:13;100849.75;;;16.01;96.37
42633;BME280;28261;53.304;-6.284;2023-06-10T09:14:21;100841.72;;;16.01;96.19
42633;BME280;28261;53.304;-6.284;2023-06-10T09:16:26;100846.66;;;16.05;96.52
42633;BME280;28261;53.304;-6.284;2023-06-10T09:18:30;100835.81;;;16.07;96.34
42633;BME280;28261;53.304;-6.284;2023-06-10T09:20:34;100840.63;;;16.13;96.16
42633;BME280;28261;53.304;-6.284;2023-06-10T09:22:41;100835.16;;;16.15;95.41
42633;BME280;28261;53.304;-6.284;2023-06-10T09:24:46;100840.88;;;16.10;95.24
42633;BME280;28261;53.304;-6.284;2023-06-10T09:26:50;100844.94;;;16.04;95.28
42633;BME280;28261;53.304;-6.284;2023-06-10T09:29:01;100854.81;;;16.04;95.88
42633;BME280;28261;53.304;-6.284;2023-06-10T09:31:06;100853.28;;;16.11;96.29
42633;BME280;28261;53.304;-6.284;2023-06-10T09:33:13;100857.00;;;16.20;95.63
42633;BME280;28261;53.304;-6.284;2023-06-10T09:35:17;100847.72;;;16.34;95.27
42633;BME280;28261;53.304;-6.284;2023-06-10T09:37:22;100851.00;;;16.47;94.60
42633;BME280;28261;53.304;-6.284;2023-06-10T09:39:28;100839.44;;;16.56;93.77
42633;BME280;28261;53.304;-6.284;2023-06-10T09:41:32;100841.28;;;16.66;92.95
42633;BME280;28261;53.304;-6.284;2023-06-10T09:43:41;100853.25;;;16.71;92.53
42633;BME280;28261;53.304;-6.284;2023-06-10T09:45:48;100852.13;;;16.74;92.26
42633;BME280;28261;53.304;-6.284;2023-06-10T09:47:56;100850.03;;;16.78;92.24
42633;BME280;28261;53.304;-6.284;2023-06-10T09:50:01;100851.28;;;16.83;92.50
42633;BME280;28261;53.304;-6.284;2023-06-10T09:52:06;100857.94;;;16.99;92.07
42633;BME280;28261;53.304;-6.284;2023-06-10T09:54:11;100847.78;;;17.12;91.35
42633;BME280;28261;53.304;-6.284;2023-06-10T09:56:18;100853.41;;;17.29;91.18
42633;BME280;28261;53.304;-6.284;2023-06-10T09:58:35;100857.34;;;17.34;90.37
42633;BME280;28261;53.304;-6.284;2023-06-10T10:00:41;100853.84;;;17.24;89.56
42633;BME280;28261;53.304;-6.284;2023-06-10T10:02:47;100849.88;;;17.08;90.44
42633;BME280;28261;53.304;-6.284;2023-06-10T10:04:53;100852.03;;;16.95;90.68
42633;BME280;28261;53.304;-6.284;2023-06-10T10:06:59;100848.03;;;16.80;90.72
42633;BME280;28261;53.304;-6.284;2023-06-10T10:09:06;100845.22;;;16.71;91.29
42633;BME280;28261;53.304;-6.284;2023-06-10T10:11:10;100841.13;;;16.67;91.50
42633;BME280;28261;53.304;-6.284;2023-06-10T10:13:16;100831.16;;;16.69;91.24
42633;BME280;28261;53.304;-6.284;2023-06-10T10:15:22;100835.25;;;16.64;91.35
42633;BME280;28261;53.304;-6.284;2023-06-10T10:17:27;100826.19;;;16.55;91.37
42633;BME280;28261;53.304;-6.284;2023-06-10T10:19:32;100825.75;;;16.40;91.95
42633;BME280;28261;53.304;-6.284;2023-06-10T10:21:43;100826.31;;;16.34;92.67
42633;BME280;28261;53.304;-6.284;2023-06-10T10:23:53;100823.50;;;16.35;92.61
42633;BME280;28261;53.304;-6.284;2023-06-10T10:26:00;100815.75;;;16.32;93.35
42633;BME280;28261;53.304;-6.284;2023-06-10T10:28:12;100814.75;;;16.33;94.18
42633;BME280;28261;53.304;-6.284;2023-06-10T10:30:17;100817.56;;;16.22;97.31
42633;BME280;28261;53.304;-6.284;2023-06-10T10:32:28;100817.53;;;16.12;98.70
42633;BME280;28261;53.304;-6.284;2023-06-10T10:34:39;100816.41;;;16.05;99.18
42633;BME280;28261;53.304;-6.284;2023-06-10T10:36:47;100816.41;;;16.05;100.00
42633;BME280;28261;53.304;-6.284;2023-06-10T10:38:54;100821.19;;;16.11;100.00
42633;BME280;28261;53.304;-6.284;2023-06-10T10:40:59;100814.19;;;16.20;100.00
42633;BME280;28261;53.304;-6.284;2023-06-10T10:43:04;100820.69;;;16.27;100.00